createdAt,value
2023-04-01T00:01:23.416Z,20.10
2023-04-01T00:03:51.758Z,20.00
2023-04-01T00:06:20.096Z,19.70
2023-04-01T00:08:48.143Z,19.40
2023-04-01T00:11:16.482Z,19.70
2023-04-01T00:13:44.542Z,19.60
2023-04-01T00:16:21.098Z,21.70
2023-04-01T00:20:15.499Z,22.00
2023-04-01T00:22:43.557Z,22.20
2023-04-01T00:25:12.430Z,22.30
2023-04-01T00:27:41.058Z,21.60
2023-04-01T00:30:11.610Z,22.00
2023-04-01T00:32:40.634Z,21.80
2023-04-01T00:35:08.938Z,23.80
2023-04-01T00:37:38.221Z,22.60
2023-04-01T00:40:07.546Z,22.80
2023-04-01T00:42:36.018Z,23.20
2023-04-01T00:45:24.201Z,24.50
2023-04-01T00:47:52.387Z,24.90
2023-04-01T00:50:20.981Z,22.80
2023-04-01T00:52:49.208Z,23.90
2023-04-01T00:55:17.509Z,24.50
2023-04-01T00:57:45.559Z,23.50
2023-04-01T01:00:15.822Z,24.70
2023-04-01T01:02:44.419Z,25.30
2023-04-01T01:05:14.747Z,24.30
2023-04-01T01:08:05.704Z,23.80
2023-04-01T01:10:35.132Z,23.50
2023-04-01T01:13:09.388Z,25.60
2023-04-01T01:16:01.248Z,25.00
2023-04-01T01:18:41.825Z,25.50
2023-04-01T01:21:45.960Z,26.50
2023-04-01T01:24:42.490Z,26.50
2023-04-01T01:27:12.744Z,26.50
2023-04-01T01:30:02.636Z,28.70
2023-04-01T01:32:49.923Z,26.40
2023-04-01T01:35:24.021Z,27.20
2023-04-01T01:37:58.727Z,25.40
2023-04-01T01:40:27.649Z,25.20
2023-04-01T01:42:57.613Z,29.30
2023-04-01T01:45:26.311Z,28.60
2023-04-01T01:47:54.488Z,28.20
2023-04-01T01:50:23.711Z,29.20
2023-04-01T01:52:52.160Z,28.60
2023-04-01T01:55:33.771Z,29.00
2023-04-01T01:58:07.579Z,28.20
2023-04-01T02:00:39.449Z,26.00
2023-04-01T02:03:07.683Z,27.10
2023-04-01T02:05:35.954Z,27.10
2023-04-01T02:08:19.728Z,27.00
2023-04-01T02:11:11.556Z,25.40
2023-04-01T02:13:47.873Z,23.80
2023-04-01T02:16:28.084Z,25.10
2023-04-01T02:18:56.646Z,23.20
2023-04-01T02:21:26.612Z,24.20
2023-04-01T02:23:55.014Z,22.60
2023-04-01T02:26:23.246Z,25.00
2023-04-01T02:28:51.866Z,26.40
2023-04-01T02:31:20.163Z,23.60
2023-04-01T02:33:51.193Z,24.20
2023-04-01T02:36:19.968Z,26.00
2023-04-01T02:38:48.310Z,22.10
2023-04-01T02:41:16.411Z,23.90
2023-04-01T02:43:44.400Z,27.80
2023-04-01T02:46:13.233Z,26.80
2023-04-01T02:48:42.760Z,24.90
2023-04-01T02:51:10.710Z,25.70
2023-04-01T02:53:40.005Z,27.50
2023-04-01T02:56:08.047Z,24.40
2023-04-01T02:58:38.135Z,26.30
2023-04-01T03:01:06.837Z,25.80
2023-04-01T03:03:35.563Z,24.40
2023-04-01T03:06:10.841Z,26.60
2023-04-01T03:08:40.532Z,23.10
2023-04-01T03:11:08.827Z,24.90
2023-04-01T03:13:37.360Z,24.30
2023-04-01T03:16:06.046Z,24.60
2023-04-01T03:18:34.228Z,24.30
2023-04-01T03:21:18.862Z,24.00
2023-04-01T03:23:46.896Z,23.90
2023-04-01T03:26:15.043Z,22.80
2023-04-01T03:28:44.119Z,21.10
2023-04-01T03:31:12.421Z,23.80
2023-04-01T03:33:44.602Z,21.90
2023-04-01T03:36:14.008Z,22.50
2023-04-01T03:38:46.336Z,21.80
2023-04-01T03:41:16.374Z,21.60
2023-04-01T03:43:45.462Z,23.30
2023-04-01T03:46:18.889Z,21.50
2023-04-01T03:48:47.286Z,23.30
2023-04-01T03:51:17.241Z,21.60
2023-04-01T03:53:45.820Z,22.80
2023-04-01T03:56:13.858Z,21.90
2023-04-01T03:58:43.668Z,23.70
2023-04-01T04:01:19.767Z,22.50
2023-04-01T04:03:56.484Z,22.40
2023-04-01T04:06:25.664Z,23.30
2023-04-01T04:08:53.838Z,22.40
2023-04-01T04:11:22.902Z,22.80
2023-04-01T04:16:37.656Z,21.00
2023-04-01T04:19:35.213Z,24.80
2023-04-01T04:22:04.367Z,71.50
2023-04-01T04:24:32.552Z,77.10
2023-04-01T04:27:06.219Z,35.00
2023-04-01T04:29:35.495Z,40.20
2023-04-01T04:32:04.979Z,35.00
2023-04-01T04:34:33.896Z,27.00
2023-04-01T04:37:02.027Z,32.10
2023-04-01T04:39:33.488Z,31.10
2023-04-01T04:42:01.798Z,29.60
2023-04-01T04:44:30.378Z,43.80
2023-04-01T04:46:59.978Z,41.60
2023-04-01T04:49:28.036Z,30.70
2023-04-01T04:51:56.332Z,54.50
2023-04-01T04:54:25.896Z,16.70
2023-04-01T04:56:58.394Z,19.90
2023-04-01T04:59:27.746Z,16.60
2023-04-01T05:02:14.547Z,15.90
2023-04-01T05:04:44.388Z,17.60
2023-04-01T05:07:12.665Z,16.80
2023-04-01T05:09:40.757Z,20.60
2023-04-01T05:12:08.970Z,16.80
2023-04-01T05:14:55.912Z,13.70
2023-04-01T05:17:26.675Z,18.00
2023-04-01T05:19:56.416Z,18.00
2023-04-01T05:22:24.801Z,21.10
2023-04-01T05:24:55.370Z,25.50
2023-04-01T05:27:24.164Z,70.00
2023-04-01T05:29:54.458Z,70.10
2023-04-01T05:32:41.861Z,68.90
2023-04-01T05:35:11.005Z,103.90
2023-04-01T05:37:39.005Z,57.40
2023-04-01T05:40:07.738Z,71.00
2023-04-01T05:42:39.177Z,36.50
2023-04-01T05:45:08.122Z,60.50
2023-04-01T05:48:02.511Z,36.90
2023-04-01T05:50:33.773Z,28.80
2023-04-01T05:53:04.583Z,27.60
2023-04-01T05:55:32.788Z,19.90
2023-04-01T05:58:01.339Z,25.60
2023-04-01T06:00:29.887Z,63.70
2023-04-01T06:03:01.170Z,79.50
2023-04-01T06:05:31.082Z,35.20
2023-04-01T06:08:01.886Z,16.00
2023-04-01T06:10:44.633Z,16.90
2023-04-01T06:13:27.309Z,17.90
2023-04-01T06:16:06.192Z,38.00
2023-04-01T06:18:44.012Z,102.90
2023-04-01T06:21:24.419Z,129.80
2023-04-01T06:24:13.090Z,234.60
2023-04-01T06:26:57.752Z,230.90
2023-04-01T06:29:42.472Z,261.80
2023-04-01T06:32:28.841Z,285.20
2023-04-01T06:35:12.457Z,231.20
2023-04-01T06:38:12.411Z,169.70
2023-04-01T06:41:02.385Z,210.30
2023-04-01T06:43:49.667Z,163.50
2023-04-01T06:46:49.276Z,236.80
2023-04-01T06:49:59.501Z,231.80
2023-04-01T06:52:55.780Z,225.10
2023-04-01T06:55:53.180Z,222.50
2023-04-01T06:58:48.661Z,247.60
2023-04-01T07:01:41.546Z,242.60
2023-04-01T07:04:35.981Z,227.50
2023-04-01T07:07:17.403Z,177.50
2023-04-01T07:09:56.456Z,68.80
2023-04-01T07:12:51.030Z,69.50
2023-04-01T07:15:40.761Z,67.90
2023-04-01T07:18:22.703Z,73.60
2023-04-01T07:20:53.815Z,153.10
2023-04-01T07:23:24.033Z,71.10
2023-04-01T07:26:05.164Z,68.70
2023-04-01T07:28:35.440Z,70.20
2023-04-01T07:31:28.935Z,276.50
2023-04-01T07:34:27.919Z,70.30
2023-04-01T07:37:13.959Z,281.30
2023-04-01T07:39:57.551Z,264.00
2023-04-01T07:42:47.179Z,282.60
2023-04-01T07:45:21.113Z,278.10
2023-04-01T07:47:59.850Z,260.80
2023-04-01T07:50:38.567Z,265.30
2023-04-01T07:53:17.403Z,72.60
2023-04-01T07:56:04.387Z,69.90
2023-04-01T07:59:11.468Z,72.20
2023-04-01T08:02:52.981Z,72.40
2023-04-01T08:05:21.588Z,76.10
2023-04-01T08:08:19.527Z,69.70
2023-04-01T08:11:32.884Z,71.90
2023-04-01T08:14:27.280Z,156.80
2023-04-01T08:19:53.421Z,338.00
2023-04-01T08:22:41.880Z,335.60
2023-04-01T08:25:27.927Z,330.90
2023-04-01T08:28:09.261Z,360.30
2023-04-01T08:30:48.844Z,290.00
2023-04-01T08:33:28.059Z,322.70
2023-04-01T08:36:11.481Z,294.60
2023-04-01T08:38:46.097Z,78.20
2023-04-01T08:41:41.797Z,77.10
2023-04-01T08:45:06.535Z,79.50
2023-04-01T08:47:39.456Z,79.20
2023-04-01T08:50:38.345Z,240.00
2023-04-01T08:53:44.811Z,331.60
2023-04-01T08:56:39.332Z,301.00
2023-04-01T08:59:25.756Z,330.20
2023-04-01T09:02:00.051Z,310.50
2023-04-01T09:05:09.533Z,271.00
2023-04-01T09:07:43.638Z,233.30
2023-04-01T09:10:29.899Z,245.90
2023-04-01T09:13:32.583Z,291.20
2023-04-01T09:16:19.497Z,313.90
2023-04-01T09:19:01.324Z,311.80
2023-04-01T09:21:36.402Z,261.40
2023-04-01T09:24:36.662Z,103.70
2023-04-01T09:27:06.936Z,107.50
2023-04-01T09:30:01.966Z,110.20
2023-04-01T09:32:53.303Z,123.10
2023-04-01T09:35:39.807Z,110.50
2023-04-01T09:38:29.745Z,105.40
2023-04-01T09:41:34.643Z,103.90
2023-04-01T09:44:33.410Z,104.00
2023-04-01T09:47:28.019Z,104.10
2023-04-01T09:50:25.639Z,109.90
2023-04-01T09:53:20.005Z,97.50
2023-04-01T09:56:21.379Z,103.00
2023-04-01T09:59:24.562Z,98.70
2023-04-01T10:02:40.873Z,97.60
2023-04-01T10:05:43.014Z,92.80
2023-04-01T10:08:43.792Z,101.60
2023-04-01T10:11:33.854Z,88.70
2023-04-01T10:14:28.635Z,86.60
2023-04-01T10:17:22.732Z,75.60
2023-04-01T10:19:52.795Z,71.20
2023-04-01T10:22:51.443Z,68.00
2023-04-01T10:25:42.991Z,71.80
2023-04-01T10:28:20.949Z,76.20
2023-04-01T10:31:43.030Z,71.90
2023-04-01T10:35:07.139Z,70.80
2023-04-01T10:37:54.156Z,78.60
2023-04-01T10:40:44.682Z,69.00
2023-04-01T10:43:43.272Z,73.80
2023-04-01T10:46:30.001Z,71.70
2023-04-01T10:48:59.102Z,73.40
2023-04-01T10:51:34.679Z,75.70
2023-04-01T10:54:20.057Z,71.90
2023-04-01T10:57:26.941Z,72.60
2023-04-01T11:00:40.097Z,75.70
2023-04-01T11:03:48.364Z,78.40
2023-04-01T11:07:11.478Z,80.00
2023-04-01T11:10:02.725Z,84.80
2023-04-01T11:13:02.709Z,94.50
2023-04-01T11:15:40.016Z,93.80
2023-04-01T11:18:30.760Z,95.80
2023-04-01T11:21:26.548Z,97.10
2023-04-01T11:24:18.457Z,94.60
2023-04-01T11:27:12.488Z,91.80
2023-04-01T11:30:02.003Z,83.50
2023-04-01T11:32:45.698Z,85.90
2023-04-01T11:35:20.619Z,85.90
2023-04-01T11:38:08.095Z,82.60
2023-04-01T11:41:14.387Z,82.90
2023-04-01T11:44:28.370Z,89.60
2023-04-01T11:47:20.810Z,80.20
2023-04-01T11:50:24.557Z,79.70
2023-04-01T11:53:22.012Z,85.00
2023-04-01T11:56:14.464Z,82.30
2023-04-01T11:59:06.499Z,74.30
2023-04-01T12:01:43.631Z,77.60
2023-04-01T12:04:30.996Z,77.30
2023-04-01T12:07:09.847Z,74.50
2023-04-01T12:10:04.689Z,70.40
2023-04-01T12:12:40.158Z,69.60
2023-04-01T12:15:21.416Z,269.60
2023-04-01T12:17:58.886Z,193.10
2023-04-01T12:20:42.433Z,148.00
2023-04-01T12:23:39.704Z,128.00
2023-04-01T12:26:30.483Z,75.70
2023-04-01T12:29:11.247Z,75.30
2023-04-01T12:32:20.383Z,80.90
2023-04-01T12:35:04.992Z,77.70
2023-04-01T12:37:42.182Z,84.00
2023-04-01T12:40:10.139Z,80.20
2023-04-01T12:42:48.351Z,78.50
2023-04-01T12:45:43.873Z,77.70
2023-04-01T12:48:47.936Z,95.30
2023-04-01T12:51:29.013Z,99.20
2023-04-01T12:54:12.389Z,103.20
2023-04-01T12:56:50.030Z,102.40
2023-04-01T13:00:16.256Z,96.40
2023-04-01T13:02:58.861Z,95.70
2023-04-01T13:05:38.932Z,98.40
2023-04-01T13:08:12.790Z,103.60
2023-04-01T13:10:50.774Z,106.80
2023-04-01T13:13:31.821Z,105.40
2023-04-01T13:16:04.225Z,108.30
2023-04-01T13:19:03.607Z,108.20
2023-04-01T13:21:40.903Z,112.00
2023-04-01T13:24:20.893Z,110.70
2023-04-01T13:26:58.637Z,118.20
2023-04-01T13:29:34.202Z,111.00
2023-04-01T13:32:36.916Z,111.10
2023-04-01T13:35:20.346Z,107.30
2023-04-01T13:38:12.563Z,99.90
2023-04-01T13:41:02.213Z,104.00
2023-04-01T13:43:47.056Z,111.20
2023-04-01T13:46:48.229Z,108.30
2023-04-01T13:49:25.446Z,107.30
2023-04-01T13:52:17.754Z,111.70
2023-04-01T13:55:15.409Z,117.00
2023-04-01T13:57:56.663Z,114.40
2023-04-01T14:00:34.409Z,117.50
2023-04-01T14:03:47.060Z,115.00
2023-04-01T14:06:35.562Z,115.00
2023-04-01T14:09:09.692Z,111.80
2023-04-01T14:12:03.079Z,112.30
2023-04-01T14:14:37.949Z,117.50
2023-04-01T14:17:28.862Z,114.40
2023-04-01T14:20:35.406Z,130.30
2023-04-01T14:23:16.969Z,115.50
2023-04-01T14:25:49.118Z,120.60
2023-04-01T14:28:36.311Z,121.00
2023-04-01T14:31:19.677Z,135.70
2023-04-01T14:34:18.289Z,135.40
2023-04-01T14:36:52.904Z,145.70
2023-04-01T14:39:40.334Z,136.80
2023-04-01T14:42:26.727Z,134.30
2023-04-01T14:45:20.648Z,146.90
2023-04-01T14:48:14.525Z,129.70
2023-04-01T14:50:47.597Z,141.40
2023-04-01T14:53:29.598Z,157.00
2023-04-01T14:55:59.694Z,139.00
2023-04-01T14:58:48.534Z,127.10
2023-04-01T15:01:31.815Z,122.40
2023-04-01T15:04:38.860Z,139.00
2023-04-01T15:07:16.576Z,370.60
2023-04-01T15:09:55.024Z,364.40
2023-04-01T15:12:28.498Z,136.40
2023-04-01T15:15:04.070Z,149.00
2023-04-01T15:18:00.111Z,375.60
2023-04-01T15:20:36.203Z,123.00
2023-04-01T15:26:09.089Z,135.30
2023-04-01T15:28:41.463Z,127.70
2023-04-01T15:31:30.236Z,119.10
2023-04-01T15:34:17.651Z,91.90
2023-04-01T15:37:11.287Z,94.40
2023-04-01T15:39:59.018Z,98.40
2023-04-01T15:42:58.006Z,102.90
2023-04-01T15:45:36.432Z,108.10
2023-04-01T15:48:27.183Z,121.20
2023-04-01T15:51:12.460Z,100.80
2023-04-01T15:53:49.533Z,109.90
2023-04-01T15:56:23.448Z,109.70
2023-04-01T16:01:28.509Z,101.80
2023-04-01T16:04:26.923Z,108.50
2023-04-01T16:07:12.328Z,103.90
2023-04-01T16:10:18.862Z,143.40
2023-04-01T16:13:10.495Z,134.10
2023-04-01T16:16:04.965Z,64.80
2023-04-01T16:18:35.976Z,64.80
2023-04-01T16:21:23.473Z,64.90
2023-04-01T16:23:54.352Z,194.60
2023-04-01T16:26:36.045Z,139.70
2023-04-01T16:29:26.249Z,172.40
2023-04-01T16:31:57.078Z,134.80
2023-04-01T16:36:23.060Z,9.20
2023-04-01T16:39:13.385Z,20.00
2023-04-01T16:45:01.568Z,7.10
2023-04-01T16:47:57.442Z,6.60
2023-04-01T16:50:32.789Z,17.80
2023-04-01T16:53:12.705Z,7.70
2023-04-01T16:56:07.285Z,11.60
2023-04-01T16:58:56.632Z,7.60
2023-04-01T17:01:30.550Z,41.90
2023-04-01T17:04:01.975Z,11.80
2023-04-01T17:06:40.464Z,14.40
2023-04-01T17:09:30.720Z,10.00
2023-04-01T17:12:32.081Z,54.00
2023-04-01T17:15:06.577Z,68.60
2023-04-01T17:17:57.026Z,9.30
2023-04-01T17:21:10.517Z,48.80
2023-04-01T17:23:47.566Z,59.80
2023-04-01T17:26:26.194Z,69.10
2023-04-01T17:28:58.830Z,66.60
2023-04-01T17:31:27.004Z,67.40
2023-04-01T17:34:07.459Z,67.80
2023-04-01T17:36:59.874Z,68.60
2023-04-01T17:39:27.974Z,66.90
2023-04-01T17:42:01.477Z,68.60
2023-04-01T17:44:41.490Z,71.00
2023-04-01T17:47:24.865Z,72.30
2023-04-01T17:50:06.329Z,66.40
2023-04-01T17:52:43.527Z,68.90
2023-04-01T17:55:38.159Z,65.40
2023-04-01T17:58:22.034Z,54.00
2023-04-01T18:01:08.644Z,67.10
2023-04-01T18:03:56.827Z,65.60
2023-04-01T18:06:43.426Z,64.70
2023-04-01T18:09:37.503Z,61.60
2023-04-01T18:12:12.115Z,68.20
2023-04-01T18:15:17.019Z,67.70
2023-04-01T18:18:09.840Z,69.40
2023-04-01T18:21:06.833Z,71.50
2023-04-01T18:23:42.748Z,67.10
2023-04-01T18:26:19.862Z,72.10
2023-04-01T18:28:57.757Z,68.10
2023-04-01T18:31:27.318Z,70.80
2023-04-01T18:34:17.599Z,69.80
2023-04-01T18:36:56.881Z,70.00
2023-04-01T18:39:39.664Z,70.40
2023-04-01T18:42:23.035Z,71.30
2023-04-01T18:44:59.132Z,71.70
2023-04-01T18:47:46.736Z,73.10
2023-04-01T18:50:28.559Z,72.20
2023-04-01T18:53:09.822Z,72.00
2023-04-01T18:55:42.688Z,72.30
2023-04-01T18:58:24.889Z,69.50
2023-04-01T19:01:04.499Z,69.20
2023-04-01T19:03:39.750Z,69.80
2023-04-01T19:06:18.320Z,69.90
2023-04-01T19:08:47.432Z,74.50
2023-04-01T19:11:18.611Z,69.60
2023-04-01T19:14:12.732Z,70.70
2023-04-01T19:16:59.568Z,69.80
2023-04-01T19:19:48.911Z,74.50
2023-04-01T19:22:32.515Z,73.00
2023-04-01T19:25:38.420Z,72.50
2023-04-01T19:28:22.353Z,70.70
2023-04-01T19:31:28.238Z,70.90
2023-04-01T19:34:15.691Z,68.60
2023-04-01T19:37:07.966Z,68.80
2023-04-01T19:40:09.954Z,69.30
2023-04-01T19:42:59.493Z,69.60
2023-04-01T19:46:20.754Z,67.90
2023-04-01T19:49:07.255Z,68.90
2023-04-01T19:51:44.228Z,70.60
2023-04-01T19:54:38.414Z,69.90
2023-04-01T19:57:36.350Z,71.00
2023-04-01T20:00:08.757Z,66.70
2023-04-01T20:02:57.335Z,69.80
2023-04-01T20:05:44.632Z,71.30
2023-04-01T20:08:26.536Z,71.30
2023-04-01T20:11:03.010Z,74.70
2023-04-01T20:13:47.704Z,72.00
2023-04-01T20:18:54.658Z,68.90
2023-04-01T20:21:46.998Z,73.00
2023-04-01T20:24:14.919Z,72.60
2023-04-01T20:26:46.909Z,70.20
2023-04-01T20:29:28.043Z,70.60
2023-04-01T20:32:24.903Z,69.00
2023-04-01T20:35:15.778Z,66.70
2023-04-01T20:38:16.906Z,70.20
2023-04-01T20:40:50.727Z,69.50
2023-04-01T20:43:26.879Z,83.90
2023-04-01T20:46:01.641Z,76.90
2023-04-01T20:48:42.162Z,118.40
2023-04-01T20:51:11.167Z,78.80
2023-04-01T20:53:52.261Z,72.60
2023-04-01T20:56:42.128Z,158.10
2023-04-01T20:59:47.753Z,137.00
2023-04-01T21:02:34.108Z,77.30
2023-04-01T21:05:32.415Z,74.00
2023-04-01T21:08:16.305Z,69.60
2023-04-01T21:11:17.759Z,82.10
2023-04-01T21:13:52.872Z,97.40
2023-04-01T21:16:45.136Z,74.50
2023-04-01T21:19:29.706Z,88.10
2023-04-01T21:22:20.446Z,75.20
2023-04-01T21:25:03.752Z,96.90
2023-04-01T21:27:47.952Z,37.10
2023-04-01T21:30:41.658Z,38.70
2023-04-01T21:33:19.355Z,73.60
2023-04-01T21:36:02.582Z,76.70
2023-04-01T21:39:14.979Z,74.10
2023-04-01T21:42:11.745Z,72.60
2023-04-01T21:44:44.940Z,74.10
2023-04-01T21:47:20.991Z,74.90
2023-04-01T21:50:17.553Z,72.40
2023-04-01T21:53:15.015Z,73.00
2023-04-01T21:55:52.570Z,75.10
2023-04-01T21:58:30.057Z,76.00
2023-04-01T22:01:00.900Z,74.60
2023-04-01T22:03:52.244Z,88.40
2023-04-01T22:06:24.488Z,92.50
2023-04-01T22:09:17.953Z,72.30
2023-04-01T22:11:58.026Z,72.00
2023-04-01T22:14:57.738Z,71.80
2023-04-01T22:17:50.491Z,73.10
2023-04-01T22:20:36.166Z,71.50
2023-04-01T22:23:28.089Z,70.40
2023-04-01T22:26:38.266Z,72.60
2023-04-01T22:29:12.469Z,73.80
2023-04-01T22:31:54.963Z,76.40
2023-04-01T22:34:48.855Z,70.50
2023-04-01T22:37:50.856Z,100.70
2023-04-01T22:40:44.752Z,18.10
2023-04-01T22:43:34.473Z,17.70
2023-04-01T22:46:16.734Z,17.00
2023-04-01T22:48:48.826Z,44.70
2023-04-01T22:51:19.278Z,73.90
2023-04-01T22:54:03.465Z,57.00
2023-04-01T22:56:38.777Z,110.50
2023-04-01T22:59:31.980Z,88.90
2023-04-01T23:02:19.668Z,79.00
2023-04-01T23:04:50.375Z,122.10
2023-04-01T23:07:47.869Z,124.60
2023-04-01T23:10:24.990Z,155.80
2023-04-01T23:12:57.890Z,114.10
2023-04-01T23:15:26.052Z,78.40
2023-04-01T23:18:06.971Z,91.60
2023-04-01T23:21:07.306Z,167.70
2023-04-01T23:23:45.718Z,158.00
2023-04-01T23:26:44.609Z,101.00
2023-04-01T23:29:15.678Z,100.30
2023-04-01T23:31:44.590Z,103.60
2023-04-01T23:34:12.793Z,92.50
2023-04-01T23:36:47.406Z,83.30
2023-04-01T23:39:24.429Z,79.60
2023-04-01T23:41:55.883Z,80.50
2023-04-01T23:44:26.093Z,94.20
2023-04-01T23:46:54.017Z,180.10
2023-04-01T23:49:24.363Z,185.80
2023-04-01T23:51:59.422Z,142.40
2023-04-01T23:54:31.819Z,147.80
2023-04-01T23:57:00.529Z,177.90
2023-04-01T23:59:31.008Z,241.20
